sensor_id;sensor_type;location;lat;lon;timestamp;P1;durP1;ratioP1;P2;durP2;ratioP2
22270;SDS011;11304;53.520;10.104;2024-01-10T00:01:42;32.90;;;17.45;;
22270;SDS011;11304;53.520;10.104;2024-01-10T00:04:08;30.55;;;16.55;;
22270;SDS011;11304;53.520;10.104;2024-01-10T00:06:34;31.38;;;16.85;;
22270;SDS011;11304;53.520;10.104;2024-01-10T00:09:00;32.15;;;16.92;;
22270;SDS011;11304;53.520;10.104;2024-01-10T00:11:27;32.50;;;16.13;;
22270;SDS011;11304;53.520;10.104;2024-01-10T00:13:53;32.90;;;17.20;;
22270;SDS011;11304;53.520;10.104;2024-01-10T00:16:24;29.77;;;16.30;;
22270;SDS011;11304;53.520;10.104;2024-01-10T00:18:51;26.58;;;15.05;;
22270;SDS011;11304;53.520;10.104;2024-01-10T00:21:17;35.03;;;17.30;;
22270;SDS011;11304;53.520;10.104;2024-01-10T00:23:43;31.20;;;17.33;;
22270;SDS011;11304;53.520;10.104;2024-01-10T00:26:09;25.75;;;15.88;;
22270;SDS011;11304;53.520;10.104;2024-01-10T00:28:35;27.45;;;15.10;;
22270;SDS011;11304;53.520;10.104;2024-01-10T00:31:01;26.50;;;15.13;;
22270;SDS011;11304;53.520;10.104;2024-01-10T00:33:27;29.65;;;15.73;;
22270;SDS011;11304;53.520;10.104;2024-01-10T00:35:53;29.40;;;17.00;;
22270;SDS011;11304;53.520;10.104;2024-01-10T00:38:19;28.33;;;14.93;;
22270;SDS011;11304;53.520;10.104;2024-01-10T00:40:46;27.27;;;16.00;;
22270;SDS011;11304;53.520;10.104;2024-01-10T00:43:12;27.60;;;15.77;;
22270;SDS011;11304;53.520;10.104;2024-01-10T00:45:38;30.10;;;15.10;;
22270;SDS011;11304;53.520;10.104;2024-01-10T00:48:04;32.58;;;17.60;;
22270;SDS011;11304;53.520;10.104;2024-01-10T00:50:30;30.77;;;16.40;;
22270;SDS011;11304;53.520;10.104;2024-01-10T00:52:56;29.88;;;14.77;;
22270;SDS011;11304;53.520;10.104;2024-01-10T00:55:22;27.55;;;15.13;;
22270;SDS011;11304;53.520;10.104;2024-01-10T00:57:48;31.65;;;16.60;;
22270;SDS011;11304;53.520;10.104;2024-01-10T01:00:14;30.92;;;16.70;;
22270;SDS011;11304;53.520;10.104;2024-01-10T01:02:41;27.70;;;14.73;;
22270;SDS011;11304;53.520;10.104;2024-01-10T01:05:07;28.15;;;14.40;;
22270;SDS011;11304;53.520;10.104;2024-01-10T01:07:33;26.85;;;14.00;;
22270;SDS011;11304;53.520;10.104;2024-01-10T01:09:59;28.45;;;14.93;;
22270;SDS011;11304;53.520;10.104;2024-01-10T01:12:25;28.00;;;14.30;;
22270;SDS011;11304;53.520;10.104;2024-01-10T01:14:52;26.67;;;14.60;;
22270;SDS011;11304;53.520;10.104;2024-01-10T01:17:18;36.67;;;16.70;;
22270;SDS011;11304;53.520;10.104;2024-01-10T01:19:44;36.60;;;17.38;;
22270;SDS011;11304;53.520;10.104;2024-01-10T01:22:10;32.13;;;17.00;;
22270;SDS011;11304;53.520;10.104;2024-01-10T01:24:36;34.20;;;17.80;;
22270;SDS011;11304;53.520;10.104;2024-01-10T01:27:02;34.38;;;17.98;;
22270;SDS011;11304;53.520;10.104;2024-01-10T01:29:28;34.45;;;17.25;;
22270;SDS011;11304;53.520;10.104;2024-01-10T01:31:55;34.65;;;19.08;;
22270;SDS011;11304;53.520;10.104;2024-01-10T01:34:21;42.17;;;19.45;;
22270;SDS011;11304;53.520;10.104;2024-01-10T01:36:47;38.50;;;19.17;;
22270;SDS011;11304;53.520;10.104;2024-01-10T01:39:13;42.25;;;20.20;;
22270;SDS011;11304;53.520;10.104;2024-01-10T01:41:40;38.88;;;21.38;;
22270;SDS011;11304;53.520;10.104;2024-01-10T01:44:06;42.83;;;21.63;;
22270;SDS011;11304;53.520;10.104;2024-01-10T01:46:32;44.90;;;21.13;;
22270;SDS011;11304;53.520;10.104;2024-01-10T01:48:58;38.03;;;20.92;;
22270;SDS011;11304;53.520;10.104;2024-01-10T01:51:24;46.38;;;19.83;;
22270;SDS011;11304;53.520;10.104;2024-01-10T01:53:51;38.97;;;20.88;;
22270;SDS011;11304;53.520;10.104;2024-01-10T01:56:18;40.20;;;20.48;;
22270;SDS011;11304;53.520;10.104;2024-01-10T01:58:44;38.05;;;19.13;;
22270;SDS011;11304;53.520;10.104;2024-01-10T02:01:12;38.70;;;19.90;;
22270;SDS011;11304;53.520;10.104;2024-01-10T02:03:38;44.15;;;21.38;;
22270;SDS011;11304;53.520;10.104;2024-01-10T02:06:04;40.53;;;20.75;;
22270;SDS011;11304;53.520;10.104;2024-01-10T02:08:34;42.92;;;20.77;;
22270;SDS011;11304;53.520;10.104;2024-01-10T02:11:01;40.90;;;20.25;;
22270;SDS011;11304;53.520;10.104;2024-01-10T02:13:28;36.35;;;18.23;;
22270;SDS011;11304;53.520;10.104;2024-01-10T02:15:54;39.17;;;19.00;;
22270;SDS011;11304;53.520;10.104;2024-01-10T02:18:20;41.13;;;20.52;;
22270;SDS011;11304;53.520;10.104;2024-01-10T02:20:46;40.28;;;19.63;;
22270;SDS011;11304;53.520;10.104;2024-01-10T02:23:13;40.92;;;18.52;;
22270;SDS011;11304;53.520;10.104;2024-01-10T02:25:40;37.85;;;18.73;;
22270;SDS011;11304;53.520;10.104;2024-01-10T02:28:06;43.28;;;18.23;;
22270;SDS011;11304;53.520;10.104;2024-01-10T02:30:34;39.55;;;18.42;;
22270;SDS011;11304;53.520;10.104;2024-01-10T02:33:00;35.70;;;18.33;;
22270;SDS011;11304;53.520;10.104;2024-01-10T02:35:26;43.17;;;19.30;;
22270;SDS011;11304;53.520;10.104;2024-01-10T02:37:52;39.53;;;19.42;;
22270;SDS011;11304;53.520;10.104;2024-01-10T02:40:19;47.30;;;21.92;;
22270;SDS011;11304;53.520;10.104;2024-01-10T02:42:45;43.35;;;20.88;;
22270;SDS011;11304;53.520;10.104;2024-01-10T02:45:12;43.70;;;20.38;;
22270;SDS011;11304;53.520;10.104;2024-01-10T02:47:38;43.13;;;19.98;;
22270;SDS011;11304;53.520;10.104;2024-01-10T02:50:04;40.20;;;18.25;;
22270;SDS011;11304;53.520;10.104;2024-01-10T02:52:30;40.53;;;18.95;;
22270;SDS011;11304;53.520;10.104;2024-01-10T02:54:56;41.05;;;19.83;;
22270;SDS011;11304;53.520;10.104;2024-01-10T02:57:23;38.22;;;17.63;;
22270;SDS011;11304;53.520;10.104;2024-01-10T02:59:49;38.03;;;17.92;;
22270;SDS011;11304;53.520;10.104;2024-01-10T03:02:15;40.70;;;18.40;;
22270;SDS011;11304;53.520;10.104;2024-01-10T03:04:41;41.20;;;18.20;;
22270;SDS011;11304;53.520;10.104;2024-01-10T03:07:08;38.67;;;18.67;;
22270;SDS011;11304;53.520;10.104;2024-01-10T03:09:34;37.85;;;16.13;;
22270;SDS011;11304;53.520;10.104;2024-01-10T03:12:01;38.25;;;17.85;;
22270;SDS011;11304;53.520;10.104;2024-01-10T03:14:27;41.53;;;19.13;;
22270;SDS011;11304;53.520;10.104;2024-01-10T03:16:53;37.97;;;17.40;;
22270;SDS011;11304;53.520;10.104;2024-01-10T03:19:19;37.97;;;18.25;;
22270;SDS011;11304;53.520;10.104;2024-01-10T03:21:45;38.50;;;17.63;;
22270;SDS011;11304;53.520;10.104;2024-01-10T03:24:11;40.88;;;17.63;;
22270;SDS011;11304;53.520;10.104;2024-01-10T03:26:37;38.33;;;17.67;;
22270;SDS011;11304;53.520;10.104;2024-01-10T03:29:03;45.42;;;19.73;;
22270;SDS011;11304;53.520;10.104;2024-01-10T03:31:29;43.70;;;18.45;;
22270;SDS011;11304;53.520;10.104;2024-01-10T03:33:56;40.42;;;18.50;;
22270;SDS011;11304;53.520;10.104;2024-01-10T03:36:23;39.67;;;18.10;;
22270;SDS011;11304;53.520;10.104;2024-01-10T03:38:49;40.85;;;18.65;;
22270;SDS011;11304;53.520;10.104;2024-01-10T03:41:16;43.03;;;18.52;;
22270;SDS011;11304;53.520;10.104;2024-01-10T03:43:42;45.53;;;19.38;;
22270;SDS011;11304;53.520;10.104;2024-01-10T03:46:11;35.85;;;16.92;;
22270;SDS011;11304;53.520;10.104;2024-01-10T03:48:37;35.25;;;16.23;;
22270;SDS011;11304;53.520;10.104;2024-01-10T03:51:12;36.80;;;16.77;;
22270;SDS011;11304;53.520;10.104;2024-01-10T03:53:38;31.42;;;14.63;;
22270;SDS011;11304;53.520;10.104;2024-01-10T03:56:04;31.08;;;15.35;;
22270;SDS011;11304;53.520;10.104;2024-01-10T03:58:31;28.23;;;14.63;;
22270;SDS011;11304;53.520;10.104;2024-01-10T04:00:57;28.60;;;14.25;;
22270;SDS011;11304;53.520;10.104;2024-01-10T04:03:23;27.48;;;14.02;;
22270;SDS011;11304;53.520;10.104;2024-01-10T04:05:49;28.05;;;14.93;;
22270;SDS011;11304;53.520;10.104;2024-01-10T04:08:15;31.27;;;14.63;;
22270;SDS011;11304;53.520;10.104;2024-01-10T04:10:41;30.90;;;14.65;;
22270;SDS011;11304;53.520;10.104;2024-01-10T04:13:07;31.48;;;16.30;;
22270;SDS011;11304;53.520;10.104;2024-01-10T04:15:33;31.10;;;17.50;;
22270;SDS011;11304;53.520;10.104;2024-01-10T04:17:59;28.30;;;16.33;;
22270;SDS011;11304;53.520;10.104;2024-01-10T04:20:26;36.70;;;17.50;;
22270;SDS011;11304;53.520;10.104;2024-01-10T04:22:52;33.42;;;18.45;;
22270;SDS011;11304;53.520;10.104;2024-01-10T04:25:18;33.05;;;16.88;;
22270;SDS011;11304;53.520;10.104;2024-01-10T04:27:44;35.80;;;17.27;;
22270;SDS011;11304;53.520;10.104;2024-01-10T04:30:10;34.60;;;17.85;;
22270;SDS011;11304;53.520;10.104;2024-01-10T04:32:36;34.67;;;18.08;;
22270;SDS011;11304;53.520;10.104;2024-01-10T04:35:02;35.22;;;19.08;;
22270;SDS011;11304;53.520;10.104;2024-01-10T04:37:29;34.83;;;18.58;;
22270;SDS011;11304;53.520;10.104;2024-01-10T04:39:55;37.47;;;19.15;;
22270;SDS011;11304;53.520;10.104;2024-01-10T04:42:21;38.78;;;18.77;;
22270;SDS011;11304;53.520;10.104;2024-01-10T04:44:47;35.08;;;18.35;;
22270;SDS011;11304;53.520;10.104;2024-01-10T04:47:14;40.42;;;20.10;;
22270;SDS011;11304;53.520;10.104;2024-01-10T04:49:40;39.67;;;19.88;;
22270;SDS011;11304;53.520;10.104;2024-01-10T04:52:06;37.45;;;19.08;;
22270;SDS011;11304;53.520;10.104;2024-01-10T04:54:32;38.08;;;20.90;;
22270;SDS011;11304;53.520;10.104;2024-01-10T04:56:59;44.10;;;22.15;;
22270;SDS011;11304;53.520;10.104;2024-01-10T04:59:25;41.10;;;21.25;;
22270;SDS011;11304;53.520;10.104;2024-01-10T05:01:51;41.45;;;20.83;;
22270;SDS011;11304;53.520;10.104;2024-01-10T05:04:17;41.38;;;19.42;;
22270;SDS011;11304;53.520;10.104;2024-01-10T05:06:43;37.15;;;20.10;;
22270;SDS011;11304;53.520;10.104;2024-01-10T05:09:09;38.40;;;20.55;;
22270;SDS011;11304;53.520;10.104;2024-01-10T05:11:35;40.63;;;21.75;;
22270;SDS011;11304;53.520;10.104;2024-01-10T05:14:02;41.08;;;21.58;;
22270;SDS011;11304;53.520;10.104;2024-01-10T05:16:28;40.85;;;21.48;;
22270;SDS011;11304;53.520;10.104;2024-01-10T05:18:54;39.55;;;21.10;;
22270;SDS011;11304;53.520;10.104;2024-01-10T05:21:20;42.65;;;20.98;;
22270;SDS011;11304;53.520;10.104;2024-01-10T05:23:46;38.40;;;20.58;;
22270;SDS011;11304;53.520;10.104;2024-01-10T05:26:12;42.88;;;21.10;;
22270;SDS011;11304;53.520;10.104;2024-01-10T05:28:38;40.28;;;20.80;;
22270;SDS011;11304;53.520;10.104;2024-01-10T05:31:04;41.17;;;22.05;;
22270;SDS011;11304;53.520;10.104;2024-01-10T05:33:31;43.92;;;21.52;;
22270;SDS011;11304;53.520;10.104;2024-01-10T05:35:57;35.25;;;19.10;;
22270;SDS011;11304;53.520;10.104;2024-01-10T05:38:23;37.22;;;19.95;;
22270;SDS011;11304;53.520;10.104;2024-01-10T05:40:49;38.78;;;19.92;;
22270;SDS011;11304;53.520;10.104;2024-01-10T05:43:17;35.55;;;19.15;;
22270;SDS011;11304;53.520;10.104;2024-01-10T05:45:43;38.15;;;20.13;;
22270;SDS011;11304;53.520;10.104;2024-01-10T05:48:09;41.95;;;19.73;;
22270;SDS011;11304;53.520;10.104;2024-01-10T05:50:35;37.05;;;19.48;;
22270;SDS011;11304;53.520;10.104;2024-01-10T05:53:01;29.75;;;16.33;;
22270;SDS011;11304;53.520;10.104;2024-01-10T05:55:27;33.40;;;18.15;;
22270;SDS011;11304;53.520;10.104;2024-01-10T05:57:53;30.83;;;18.42;;
22270;SDS011;11304;53.520;10.104;2024-01-10T06:00:19;33.15;;;18.42;;
22270;SDS011;11304;53.520;10.104;2024-01-10T06:02:46;27.88;;;16.88;;
22270;SDS011;11304;53.520;10.104;2024-01-10T06:05:12;33.63;;;16.63;;
22270;SDS011;11304;53.520;10.104;2024-01-10T06:07:38;32.60;;;18.38;;
22270;SDS011;11304;53.520;10.104;2024-01-10T06:10:06;29.45;;;14.02;;
22270;SDS011;11304;53.520;10.104;2024-01-10T06:12:32;26.20;;;12.55;;
22270;SDS011;11304;53.520;10.104;2024-01-10T06:14:58;24.98;;;13.13;;
22270;SDS011;11304;53.520;10.104;2024-01-10T06:17:24;26.42;;;15.27;;
22270;SDS011;11304;53.520;10.104;2024-01-10T06:19:50;34.50;;;15.35;;
22270;SDS011;11304;53.520;10.104;2024-01-10T06:22:17;28.38;;;14.93;;
22270;SDS011;11304;53.520;10.104;2024-01-10T06:24:43;31.73;;;15.07;;
22270;SDS011;11304;53.520;10.104;2024-01-10T06:27:09;29.38;;;14.57;;
22270;SDS011;11304;53.520;10.104;2024-01-10T06:29:36;27.05;;;14.50;;
22270;SDS011;11304;53.520;10.104;2024-01-10T06:32:05;28.60;;;14.95;;
22270;SDS011;11304;53.520;10.104;2024-01-10T06:34:31;30.17;;;15.23;;
22270;SDS011;11304;53.520;10.104;2024-01-10T06:36:58;29.25;;;15.13;;
22270;SDS011;11304;53.520;10.104;2024-01-10T06:39:24;28.77;;;15.27;;
22270;SDS011;11304;53.520;10.104;2024-01-10T06:41:51;30.80;;;16.33;;
22270;SDS011;11304;53.520;10.104;2024-01-10T06:44:17;25.10;;;14.05;;
22270;SDS011;11304;53.520;10.104;2024-01-10T06:46:44;27.17;;;14.43;;
22270;SDS011;11304;53.520;10.104;2024-01-10T06:49:10;29.02;;;14.77;;
22270;SDS011;11304;53.520;10.104;2024-01-10T06:51:36;28.58;;;14.20;;
22270;SDS011;11304;53.520;10.104;2024-01-10T06:54:02;24.10;;;12.35;;
22270;SDS011;11304;53.520;10.104;2024-01-10T06:56:32;22.80;;;13.38;;
22270;SDS011;11304;53.520;10.104;2024-01-10T06:58:58;24.00;;;13.25;;
22270;SDS011;11304;53.520;10.104;2024-01-10T07:01:25;25.55;;;14.18;;
22270;SDS011;11304;53.520;10.104;2024-01-10T07:03:54;24.48;;;14.18;;
22270;SDS011;11304;53.520;10.104;2024-01-10T07:06:21;22.80;;;13.30;;
22270;SDS011;11304;53.520;10.104;2024-01-10T07:08:48;24.42;;;12.18;;
22270;SDS011;11304;53.520;10.104;2024-01-10T07:11:14;23.40;;;12.52;;
22270;SDS011;11304;53.520;10.104;2024-01-10T07:13:40;23.08;;;14.05;;
22270;SDS011;11304;53.520;10.104;2024-01-10T07:16:07;20.90;;;11.80;;
22270;SDS011;11304;53.520;10.104;2024-01-10T07:18:33;24.48;;;12.82;;
22270;SDS011;11304;53.520;10.104;2024-01-10T07:20:59;23.40;;;12.77;;
22270;SDS011;11304;53.520;10.104;2024-01-10T07:23:26;19.73;;;11.50;;
22270;SDS011;11304;53.520;10.104;2024-01-10T07:25:52;24.17;;;12.50;;
22270;SDS011;11304;53.520;10.104;2024-01-10T07:28:19;19.73;;;11.93;;
22270;SDS011;11304;53.520;10.104;2024-01-10T07:30:45;22.23;;;12.15;;
22270;SDS011;11304;53.520;10.104;2024-01-10T07:33:11;26.88;;;13.63;;
22270;SDS011;11304;53.520;10.104;2024-01-10T07:35:37;23.25;;;12.25;;
22270;SDS011;11304;53.520;10.104;2024-01-10T07:38:04;21.30;;;12.50;;
22270;SDS011;11304;53.520;10.104;2024-01-10T07:40:33;26.50;;;13.93;;
22270;SDS011;11304;53.520;10.104;2024-01-10T07:42:59;27.83;;;14.77;;
22270;SDS011;11304;53.520;10.104;2024-01-10T07:45:26;23.20;;;14.15;;
22270;SDS011;11304;53.520;10.104;2024-01-10T07:47:52;22.73;;;13.18;;
22270;SDS011;11304;53.520;10.104;2024-01-10T07:50:18;24.60;;;13.95;;
22270;SDS011;11304;53.520;10.104;2024-01-10T07:52:44;22.98;;;13.85;;
22270;SDS011;11304;53.520;10.104;2024-01-10T07:55:11;27.15;;;14.77;;
22270;SDS011;11304;53.520;10.104;2024-01-10T07:57:37;24.08;;;14.50;;
22270;SDS011;11304;53.520;10.104;2024-01-10T08:00:06;31.65;;;14.52;;
22270;SDS011;11304;53.520;10.104;2024-01-10T08:02:35;27.13;;;15.05;;
22270;SDS011;11304;53.520;10.104;2024-01-10T08:05:02;21.35;;;12.60;;
22270;SDS011;11304;53.520;10.104;2024-01-10T08:07:33;21.05;;;12.55;;
22270;SDS011;11304;53.520;10.104;2024-01-10T08:12:27;23.83;;;12.75;;
22270;SDS011;11304;53.520;10.104;2024-01-10T08:14:53;20.23;;;11.73;;
22270;SDS011;11304;53.520;10.104;2024-01-10T08:17:19;20.38;;;11.65;;
22270;SDS011;11304;53.520;10.104;2024-01-10T08:19:46;21.92;;;11.68;;
22270;SDS011;11304;53.520;10.104;2024-01-10T08:22:12;19.15;;;11.00;;
22270;SDS011;11304;53.520;10.104;2024-01-10T08:24:38;24.65;;;11.93;;
22270;SDS011;11304;53.520;10.104;2024-01-10T08:27:04;20.50;;;10.40;;
22270;SDS011;11304;53.520;10.104;2024-01-10T08:29:30;20.70;;;10.77;;
22270;SDS011;11304;53.520;10.104;2024-01-10T08:31:57;18.38;;;10.57;;
22270;SDS011;11304;53.520;10.104;2024-01-10T08:34:23;22.05;;;11.75;;
22270;SDS011;11304;53.520;10.104;2024-01-10T08:36:49;23.20;;;10.88;;
22270;SDS011;11304;53.520;10.104;2024-01-10T08:39:16;23.00;;;11.65;;
22270;SDS011;11304;53.520;10.104;2024-01-10T08:41:42;22.90;;;11.90;;
22270;SDS011;11304;53.520;10.104;2024-01-10T08:44:12;27.70;;;12.82;;
22270;SDS011;11304;53.520;10.104;2024-01-10T08:46:38;22.65;;;11.23;;
22270;SDS011;11304;53.520;10.104;2024-01-10T08:49:04;24.98;;;12.98;;
22270;SDS011;11304;53.520;10.104;2024-01-10T08:51:30;20.52;;;11.27;;
22270;SDS011;11304;53.520;10.104;2024-01-10T08:53:56;22.50;;;12.00;;
22270;SDS011;11304;53.520;10.104;2024-01-10T08:56:22;18.67;;;10.63;;
22270;SDS011;11304;53.520;10.104;2024-01-10T08:58:49;19.83;;;10.43;;
22270;SDS011;11304;53.520;10.104;2024-01-10T09:01:15;22.92;;;11.95;;
22270;SDS011;11304;53.520;10.104;2024-01-10T09:03:41;18.60;;;11.35;;
22270;SDS011;11304;53.520;10.104;2024-01-10T09:06:07;20.20;;;11.70;;
22270;SDS011;11304;53.520;10.104;2024-01-10T09:08:33;23.08;;;11.30;;
22270;SDS011;11304;53.520;10.104;2024-01-10T09:11:00;22.10;;;12.05;;
22270;SDS011;11304;53.520;10.104;2024-01-10T09:13:26;22.00;;;11.27;;
22270;SDS011;11304;53.520;10.104;2024-01-10T09:15:52;20.92;;;11.48;;
22270;SDS011;11304;53.520;10.104;2024-01-10T09:18:18;18.10;;;10.45;;
22270;SDS011;11304;53.520;10.104;2024-01-10T09:20:44;19.40;;;11.27;;
22270;SDS011;11304;53.520;10.104;2024-01-10T09:23:10;19.65;;;11.20;;
22270;SDS011;11304;53.520;10.104;2024-01-10T09:25:37;18.85;;;11.73;;
22270;SDS011;11304;53.520;10.104;2024-01-10T09:28:06;20.92;;;11.77;;
22270;SDS011;11304;53.520;10.104;2024-01-10T09:30:32;21.55;;;11.25;;
22270;SDS011;11304;53.520;10.104;2024-01-10T09:32:59;21.90;;;12.25;;
22270;SDS011;11304;53.520;10.104;2024-01-10T09:35:25;20.13;;;11.55;;
22270;SDS011;11304;53.520;10.104;2024-01-10T09:37:51;19.52;;;11.88;;
22270;SDS011;11304;53.520;10.104;2024-01-10T09:40:19;20.95;;;11.32;;
22270;SDS011;11304;53.520;10.104;2024-01-10T09:42:48;17.23;;;9.98;;
22270;SDS011;11304;53.520;10.104;2024-01-10T09:45:16;16.80;;;9.70;;
22270;SDS011;11304;53.520;10.104;2024-01-10T09:47:43;18.13;;;9.48;;
22270;SDS011;11304;53.520;10.104;2024-01-10T09:50:11;19.15;;;10.35;;
22270;SDS011;11304;53.520;10.104;2024-01-10T09:52:41;18.95;;;9.60;;
22270;SDS011;11304;53.520;10.104;2024-01-10T09:55:07;17.15;;;9.70;;
22270;SDS011;11304;53.520;10.104;2024-01-10T09:57:34;17.02;;;9.93;;
22270;SDS011;11304;53.520;10.104;2024-01-10T10:00:01;18.45;;;9.90;;
22270;SDS011;11304;53.520;10.104;2024-01-10T10:02:29;15.48;;;9.27;;
22270;SDS011;11304;53.520;10.104;2024-01-10T10:05:08;18.00;;;9.93;;
22270;SDS011;11304;53.520;10.104;2024-01-10T10:07:46;17.42;;;10.48;;
22270;SDS011;11304;53.520;10.104;2024-01-10T10:10:13;19.25;;;10.63;;
22270;SDS011;11304;53.520;10.104;2024-01-10T10:12:44;18.45;;;10.45;;
22270;SDS011;11304;53.520;10.104;2024-01-10T10:15:11;18.33;;;10.55;;
22270;SDS011;11304;53.520;10.104;2024-01-10T10:17:37;20.10;;;10.65;;
22270;SDS011;11304;53.520;10.104;2024-01-10T10:20:10;18.15;;;10.32;;
22270;SDS011;11304;53.520;10.104;2024-01-10T10:22:36;17.88;;;10.88;;
22270;SDS011;11304;53.520;10.104;2024-01-10T10:25:02;18.80;;;11.27;;
22270;SDS011;11304;53.520;10.104;2024-01-10T10:27:29;19.58;;;10.45;;
22270;SDS011;11304;53.520;10.104;2024-01-10T10:29:55;17.67;;;10.98;;
22270;SDS011;11304;53.520;10.104;2024-01-10T10:32:21;16.13;;;10.25;;
22270;SDS011;11304;53.520;10.104;2024-01-10T10:34:47;18.00;;;10.93;;
22270;SDS011;11304;53.520;10.104;2024-01-10T10:37:13;14.25;;;9.55;;
22270;SDS011;11304;53.520;10.104;2024-01-10T10:39:40;16.77;;;10.60;;
22270;SDS011;11304;53.520;10.104;2024-01-10T10:42:06;18.05;;;9.13;;
22270;SDS011;11304;53.520;10.104;2024-01-10T10:44:33;17.05;;;9.65;;
22270;SDS011;11304;53.520;10.104;2024-01-10T10:49:28;16.48;;;9.30;;
22270;SDS011;11304;53.520;10.104;2024-01-10T10:51:59;21.38;;;11.35;;
22270;SDS011;11304;53.520;10.104;2024-01-10T10:54:29;19.98;;;11.15;;
22270;SDS011;11304;53.520;10.104;2024-01-10T10:56:57;15.93;;;9.27;;
22270;SDS011;11304;53.520;10.104;2024-01-10T10:59:24;16.35;;;10.38;;
22270;SDS011;11304;53.520;10.104;2024-01-10T11:01:51;17.30;;;10.77;;
22270;SDS011;11304;53.520;10.104;2024-01-10T11:04:17;16.45;;;10.13;;
22270;SDS011;11304;53.520;10.104;2024-01-10T11:06:44;16.13;;;9.25;;
22270;SDS011;11304;53.520;10.104;2024-01-10T11:09:10;17.98;;;10.00;;
22270;SDS011;11304;53.520;10.104;2024-01-10T11:11:50;18.43;;;10.00;;
22270;SDS011;11304;53.520;10.104;2024-01-10T11:14:24;15.70;;;9.27;;
22270;SDS011;11304;53.520;10.104;2024-01-10T11:17:09;16.45;;;9.60;;
22270;SDS011;11304;53.520;10.104;2024-01-10T11:22:34;21.58;;;11.50;;
22270;SDS011;11304;53.520;10.104;2024-01-10T11:25:04;18.13;;;11.07;;
22270;SDS011;11304;53.520;10.104;2024-01-10T11:27:30;17.70;;;10.10;;
22270;SDS011;11304;53.520;10.104;2024-01-10T11:29:56;16.75;;;10.13;;
22270;SDS011;11304;53.520;10.104;2024-01-10T11:32:24;20.83;;;10.48;;
22270;SDS011;11304;53.520;10.104;2024-01-10T11:34:54;24.17;;;13.23;;
22270;SDS011;11304;53.520;10.104;2024-01-10T11:37:38;22.40;;;12.00;;
22270;SDS011;11304;53.520;10.104;2024-01-10T11:40:07;18.80;;;10.05;;
22270;SDS011;11304;53.520;10.104;2024-01-10T11:42:44;17.15;;;10.45;;
22270;SDS011;11304;53.520;10.104;2024-01-10T11:45:16;20.20;;;10.52;;
22270;SDS011;11304;53.520;10.104;2024-01-10T11:50:24;21.67;;;12.15;;
22270;SDS011;11304;53.520;10.104;2024-01-10T11:52:54;19.23;;;11.18;;
22270;SDS011;11304;53.520;10.104;2024-01-10T11:58:08;22.02;;;12.38;;
22270;SDS011;11304;53.520;10.104;2024-01-10T12:00:35;21.83;;;12.93;;
22270;SDS011;11304;53.520;10.104;2024-01-10T12:03:01;22.33;;;12.63;;
22270;SDS011;11304;53.520;10.104;2024-01-10T12:05:28;25.45;;;13.40;;
22270;SDS011;11304;53.520;10.104;2024-01-10T12:07:55;23.30;;;12.82;;
22270;SDS011;11304;53.520;10.104;2024-01-10T12:10:21;18.48;;;12.07;;
22270;SDS011;11304;53.520;10.104;2024-01-10T12:12:47;22.30;;;12.93;;
22270;SDS011;11304;53.520;10.104;2024-01-10T12:15:13;17.48;;;10.60;;
22270;SDS011;11304;53.520;10.104;2024-01-10T12:17:40;19.20;;;10.48;;
22270;SDS011;11304;53.520;10.104;2024-01-10T12:20:06;16.67;;;10.43;;
22270;SDS011;11304;53.520;10.104;2024-01-10T12:22:32;15.70;;;8.85;;
22270;SDS011;11304;53.520;10.104;2024-01-10T12:25:03;16.67;;;9.50;;
22270;SDS011;11304;53.520;10.104;2024-01-10T12:27:30;16.63;;;8.70;;
22270;SDS011;11304;53.520;10.104;2024-01-10T12:32:25;14.70;;;8.68;;
22270;SDS011;11304;53.520;10.104;2024-01-10T12:35:03;15.60;;;9.10;;
22270;SDS011;11304;53.520;10.104;2024-01-10T12:37:31;16.50;;;9.65;;
22270;SDS011;11304;53.520;10.104;2024-01-10T12:39:57;17.00;;;10.15;;
22270;SDS011;11304;53.520;10.104;2024-01-10T12:42:23;17.73;;;9.77;;
22270;SDS011;11304;53.520;10.104;2024-01-10T12:44:49;15.48;;;9.48;;
22270;SDS011;11304;53.520;10.104;2024-01-10T12:47:22;17.02;;;9.95;;
22270;SDS011;11304;53.520;10.104;2024-01-10T12:49:49;17.02;;;10.32;;
22270;SDS011;11304;53.520;10.104;2024-01-10T12:52:15;15.60;;;10.15;;
22270;SDS011;11304;53.520;10.104;2024-01-10T12:54:41;15.25;;;9.05;;
22270;SDS011;11304;53.520;10.104;2024-01-10T12:57:08;14.60;;;8.98;;
22270;SDS011;11304;53.520;10.104;2024-01-10T12:59:35;14.82;;;9.30;;
22270;SDS011;11304;53.520;10.104;2024-01-10T13:02:01;16.65;;;9.40;;
22270;SDS011;11304;53.520;10.104;2024-01-10T13:04:27;15.00;;;8.65;;
22270;SDS011;11304;53.520;10.104;2024-01-10T13:06:53;14.90;;;9.05;;
22270;SDS011;11304;53.520;10.104;2024-01-10T13:09:19;15.82;;;8.90;;
22270;SDS011;11304;53.520;10.104;2024-01-10T13:11:45;16.90;;;10.15;;
22270;SDS011;11304;53.520;10.104;2024-01-10T13:14:12;13.07;;;8.65;;
22270;SDS011;11304;53.520;10.104;2024-01-10T13:16:38;15.13;;;8.93;;
22270;SDS011;11304;53.520;10.104;2024-01-10T13:19:04;14.65;;;8.98;;
22270;SDS011;11304;53.520;10.104;2024-01-10T13:21:30;14.90;;;9.00;;
22270;SDS011;11304;53.520;10.104;2024-01-10T13:23:56;15.75;;;8.88;;
22270;SDS011;11304;53.520;10.104;2024-01-10T13:26:22;15.00;;;8.52;;
22270;SDS011;11304;53.520;10.104;2024-01-10T13:28:49;13.73;;;8.32;;
22270;SDS011;11304;53.520;10.104;2024-01-10T13:31:16;15.55;;;9.48;;
22270;SDS011;11304;53.520;10.104;2024-01-10T13:33:42;16.90;;;9.02;;
22270;SDS011;11304;53.520;10.104;2024-01-10T13:36:08;15.50;;;9.00;;
22270;SDS011;11304;53.520;10.104;2024-01-10T13:38:34;18.27;;;8.80;;
22270;SDS011;11304;53.520;10.104;2024-01-10T13:41:00;16.38;;;8.93;;
22270;SDS011;11304;53.520;10.104;2024-01-10T13:43:27;14.63;;;8.82;;
22270;SDS011;11304;53.520;10.104;2024-01-10T13:45:53;19.67;;;8.95;;
22270;SDS011;11304;53.520;10.104;2024-01-10T13:48:19;13.35;;;8.40;;
22270;SDS011;11304;53.520;10.104;2024-01-10T13:50:45;14.15;;;8.32;;
22270;SDS011;11304;53.520;10.104;2024-01-10T13:53:11;15.98;;;9.02;;
22270;SDS011;11304;53.520;10.104;2024-01-10T13:55:38;15.50;;;9.02;;
22270;SDS011;11304;53.520;10.104;2024-01-10T13:58:04;14.90;;;9.07;;
22270;SDS011;11304;53.520;10.104;2024-01-10T14:00:30;13.90;;;8.32;;
22270;SDS011;11304;53.520;10.104;2024-01-10T14:02:56;17.05;;;9.13;;
22270;SDS011;11304;53.520;10.104;2024-01-10T14:05:26;17.33;;;9.90;;
22270;SDS011;11304;53.520;10.104;2024-01-10T14:07:52;14.85;;;8.70;;
22270;SDS011;11304;53.520;10.104;2024-01-10T14:10:18;14.55;;;8.88;;
22270;SDS011;11304;53.520;10.104;2024-01-10T14:12:44;16.67;;;9.07;;
22270;SDS011;11304;53.520;10.104;2024-01-10T14:15:10;14.07;;;8.45;;
22270;SDS011;11304;53.520;10.104;2024-01-10T14:17:37;14.80;;;8.52;;
22270;SDS011;11304;53.520;10.104;2024-01-10T14:20:03;14.40;;;8.70;;
22270;SDS011;11304;53.520;10.104;2024-01-10T14:22:29;15.38;;;9.15;;
22270;SDS011;11304;53.520;10.104;2024-01-10T14:24:55;17.15;;;8.85;;